Vremea acum in Suceava - Romania

Vrei sa afli care e starea vremii acum in Suceava - Romania? Dorim sa iti furnizam starea vremii pentru Suceava - Romania. Starea vremii Suceava - Romania pentru astazi.

Vremea acum in Suceava

Temperatura: 15 °C

Se simte ca: 15.2 °C
Innorat: 0 %
Precipitatii: 0 %
Presiune atmosferica: 1023 hPa
Umiditate: 67%
Vizibilitate: 10 km
Vantul bate din N cu 6.1 km/h

Evolutia vremii in Suceava pe ore

Ora: 00:00
Parțial noros
Temperatura: 14°C
Sansa de precipitatii: 0%
Ora Descriere Temp Se simte Precipitatii Umiditate Vant
00:00Parțial noros14°14.4°0%88%W 3.6 KM/H
01:00Parțial noros13.7°13.9°0%88%WNW 2.9 KM/H
02:00Parțial noros13.5°13.5°0%89%NW 2.5 KM/H
03:00Parțial noros13.2°13.4°0%88%NNW 2.9 KM/H
04:00Parțial noros12.8°13.3°0%88%NNW 2.9 KM/H
05:00Parțial noros12.5°13.2°0%88%NNW 3.2 KM/H
06:00Parțial noros14.2°14.6°0%81%WSW 4.3 KM/H
07:00Parțial noros15.8°16.1°0%73%SSE 5.4 KM/H
08:00Parțial noros17.5°17.5°0%66%NE 6.5 KM/H
09:00Parțial noros18.4°18.4°0%61%ENE 8.3 KM/H
10:00Parțial noros19.3°19.3°0%56%ENE 10.1 KM/H
11:00Parțial noros20.2°20.2°0%51%E 11.9 KM/H
12:00Parțial noros20.7°20.7°0%50%E 11.9 KM/H
13:00Parțial noros21.3°21.3°0%48%E 11.9 KM/H
14:00Parțial noros21.8°21.8°0%46%E 11.9 KM/H
15:00Parțial noros21.8°21.8°0%47%E 11.5 KM/H
16:00Parțial noros21.7°21.7°0%48%ENE 11.5 KM/H
17:00Parțial noros21.7°21.7°0%49%ENE 11.2 KM/H
18:00Parțial noros20.4°20.4°0%56%ENE 9.7 KM/H
19:00Parțial noros19.1°19.1°0%63%ENE 7.9 KM/H
20:00Parțial noros17.8°17.8°0%70%ENE 6.5 KM/H
21:00Parțial noros16.4°16.4°0%73%ENE 4.7 KM/H
22:00Parțial noros15°15°0%76%ENE 3.2 KM/H
23:00Parțial noros13.6°13.6°0%79%ENE 1.4 KM/H